sensor_id;sensor_type;location;lat;lon;timestamp;pressure;altitude;pressure_sealevel;temperature;humidity
33161;BME280;19522;45.656;11.302;2022-12-18T00:00:42;99397.94;;;3.39;93.60
33161;BME280;19522;45.656;11.302;2022-12-18T00:03:08;99371.09;;;3.39;91.24
33161;BME280;19522;45.656;11.302;2022-12-18T00:05:33;99403.19;;;3.41;92.12
33161;BME280;19522;45.656;11.302;2022-12-18T00:07:59;99402.06;;;3.32;92.51
33161;BME280;19522;45.656;11.302;2022-12-18T00:10:24;99405.59;;;3.21;93.81
33161;BME280;19522;45.656;11.302;2022-12-18T00:12:50;99397.84;;;3.05;94.99
33161;BME280;19522;45.656;11.302;2022-12-18T00:15:16;99392.13;;;3.10;95.29
33161;BME280;19522;45.656;11.302;2022-12-18T00:17:41;99404.13;;;3.17;95.46
33161;BME280;19522;45.656;11.302;2022-12-18T00:20:07;99403.50;;;3.25;92.57
33161;BME280;19522;45.656;11.302;2022-12-18T00:22:33;99403.06;;;3.31;92.44
33161;BME280;19522;45.656;11.302;2022-12-18T00:24:58;99407.91;;;3.26;92.01
33161;BME280;19522;45.656;11.302;2022-12-18T00:27:24;99407.91;;;3.26;91.68
33161;BME280;19522;45.656;11.302;2022-12-18T00:29:49;99355.75;;;2.94;91.15
33161;BME280;19522;45.656;11.302;2022-12-18T00:32:15;99404.97;;;3.18;91.92
33161;BME280;19522;45.656;11.302;2022-12-18T00:34:40;99410.28;;;3.06;92.24
33161;BME280;19522;45.656;11.302;2022-12-18T00:37:06;99388.09;;;2.69;93.65
33161;BME280;19522;45.656;11.302;2022-12-18T00:39:31;99410.78;;;2.76;94.56
33161;BME280;19522;45.656;11.302;2022-12-18T00:41:57;99430.34;;;2.65;95.43
33161;BME280;19522;45.656;11.302;2022-12-18T00:44:41;99410.16;;;2.48;96.17
33161;BME280;19522;45.656;11.302;2022-12-18T00:47:06;99425.81;;;2.78;95.17
33161;BME280;19522;45.656;11.302;2022-12-18T00:49:32;99428.53;;;2.90;93.39
33161;BME280;19522;45.656;11.302;2022-12-18T00:51:57;99433.91;;;2.90;93.49
33161;BME280;19522;45.656;11.302;2022-12-18T00:54:23;99432.25;;;2.76;93.64
33161;BME280;19522;45.656;11.302;2022-12-18T00:56:48;99434.53;;;2.69;94.64
33161;BME280;19522;45.656;11.302;2022-12-18T00:59:14;99394.13;;;2.35;95.38
33161;BME280;19522;45.656;11.302;2022-12-18T01:01:40;99441.78;;;2.80;94.07
33161;BME280;19522;45.656;11.302;2022-12-18T01:04:06;99358.25;;;2.25;93.34
33161;BME280;19522;45.656;11.302;2022-12-18T01:06:31;99455.19;;;2.80;93.19
33161;BME280;19522;45.656;11.302;2022-12-18T01:08:57;99461.63;;;2.77;93.17
33161;BME280;19522;45.656;11.302;2022-12-18T01:11:23;99466.38;;;2.74;93.50
33161;BME280;19522;45.656;11.302;2022-12-18T01:13:48;99458.53;;;2.46;95.22
33161;BME280;19522;45.656;11.302;2022-12-18T01:16:15;99434.97;;;2.39;95.24
33161;BME280;19522;45.656;11.302;2022-12-18T01:18:41;99478.25;;;2.58;95.33
33161;BME280;19522;45.656;11.302;2022-12-18T01:21:13;99476.75;;;2.54;94.74
33161;BME280;19522;45.656;11.302;2022-12-18T01:23:40;99490.06;;;2.43;95.26
33161;BME280;19522;45.656;11.302;2022-12-18T01:26:07;99491.81;;;2.31;96.38
33161;BME280;19522;45.656;11.302;2022-12-18T01:28:33;99488.63;;;2.13;97.73
33161;BME280;19522;45.656;11.302;2022-12-18T01:31:12;99420.28;;;1.68;98.97
33161;BME280;19522;45.656;11.302;2022-12-18T01:33:39;99499.66;;;2.08;99.71
33161;BME280;19522;45.656;11.302;2022-12-18T01:36:05;99466.03;;;2.04;98.43
33161;BME280;19522;45.656;11.302;2022-12-18T01:38:31;99496.53;;;2.40;97.11
33161;BME280;19522;45.656;11.302;2022-12-18T01:41:00;99474.03;;;2.30;96.12
33161;BME280;19522;45.656;11.302;2022-12-18T01:43:48;99507.25;;;2.40;96.22
33161;BME280;19522;45.656;11.302;2022-12-18T01:46:17;99472.66;;;2.11;96.65
33161;BME280;19522;45.656;11.302;2022-12-18T01:48:45;99502.34;;;2.34;96.39
33161;BME280;19522;45.656;11.302;2022-12-18T01:51:12;99488.28;;;2.30;95.78
33161;BME280;19522;45.656;11.302;2022-12-18T01:53:41;99414.06;;;1.94;93.56
33161;BME280;19522;45.656;11.302;2022-12-18T01:56:07;99501.03;;;2.40;93.98
33161;BME280;19522;45.656;11.302;2022-12-18T01:58:46;99517.31;;;2.49;94.24
33161;BME280;19522;45.656;11.302;2022-12-18T02:01:13;99513.69;;;2.38;94.81
33161;BME280;19522;45.656;11.302;2022-12-18T02:03:43;99513.91;;;2.22;96.51
33161;BME280;19522;45.656;11.302;2022-12-18T02:06:15;99478.88;;;1.86;97.22
33161;BME280;19522;45.656;11.302;2022-12-18T02:09:18;99535.16;;;1.99;98.51
33161;BME280;19522;45.656;11.302;2022-12-18T02:14:38;99531.50;;;2.00;100.00
33161;BME280;19522;45.656;11.302;2022-12-18T02:20:28;99530.19;;;2.31;97.58
33161;BME280;19522;45.656;11.302;2022-12-18T02:28:09;99524.75;;;2.20;95.88
33161;BME280;19522;45.656;11.302;2022-12-18T02:30:37;99528.16;;;2.22;96.14
33161;BME280;19522;45.656;11.302;2022-12-18T02:33:06;99485.97;;;1.87;96.83
33161;BME280;19522;45.656;11.302;2022-12-18T02:35:34;99498.72;;;1.83;96.32
33161;BME280;19522;45.656;11.302;2022-12-18T02:38:01;99528.63;;;2.03;96.96
33161;BME280;19522;45.656;11.302;2022-12-18T02:40:29;99544.81;;;2.14;96.40
33161;BME280;19522;45.656;11.302;2022-12-18T02:42:55;99553.56;;;2.16;95.53
33161;BME280;19522;45.656;11.302;2022-12-18T02:45:27;99552.22;;;2.11;95.58
33161;BME280;19522;45.656;11.302;2022-12-18T02:47:52;99543.19;;;2.12;94.86
33161;BME280;19522;45.656;11.302;2022-12-18T02:50:35;99548.63;;;2.36;93.56
33161;BME280;19522;45.656;11.302;2022-12-18T02:53:14;99509.75;;;2.05;94.03
33161;BME280;19522;45.656;11.302;2022-12-18T02:58:42;99550.59;;;2.21;94.23
33161;BME280;19522;45.656;11.302;2022-12-18T03:01:15;99545.53;;;2.16;94.71
33161;BME280;19522;45.656;11.302;2022-12-18T03:03:52;99546.53;;;2.15;95.17
33161;BME280;19522;45.656;11.302;2022-12-18T03:06:27;99533.44;;;1.85;96.51
33161;BME280;19522;45.656;11.302;2022-12-18T03:09:02;99550.06;;;2.03;96.28
33161;BME280;19522;45.656;11.302;2022-12-18T03:11:30;99552.09;;;1.86;96.46
33161;BME280;19522;45.656;11.302;2022-12-18T03:14:17;99552.50;;;1.93;96.47
33161;BME280;19522;45.656;11.302;2022-12-18T03:16:48;99508.88;;;1.65;96.21
33161;BME280;19522;45.656;11.302;2022-12-18T03:19:17;99554.53;;;2.02;95.13
33161;BME280;19522;45.656;11.302;2022-12-18T03:21:51;99554.00;;;1.84;96.42
33161;BME280;19522;45.656;11.302;2022-12-18T03:24:19;99537.94;;;1.84;96.25
33161;BME280;19522;45.656;11.302;2022-12-18T03:26:49;99532.66;;;1.70;94.98
33161;BME280;19522;45.656;11.302;2022-12-18T03:29:26;99558.09;;;1.77;96.16
33161;BME280;19522;45.656;11.302;2022-12-18T03:32:01;99569.69;;;1.50;97.82
33161;BME280;19522;45.656;11.302;2022-12-18T03:34:33;99564.97;;;1.54;99.49
33161;BME280;19522;45.656;11.302;2022-12-18T03:37:03;99550.72;;;1.40;100.00
33161;BME280;19522;45.656;11.302;2022-12-18T03:39:29;99561.47;;;1.66;99.54
33161;BME280;19522;45.656;11.302;2022-12-18T03:42:21;99573.72;;;1.70;99.70
33161;BME280;19522;45.656;11.302;2022-12-18T03:44:58;99570.28;;;1.81;98.19
33161;BME280;19522;45.656;11.302;2022-12-18T03:47:33;99558.16;;;1.63;98.50
33161;BME280;19522;45.656;11.302;2022-12-18T03:52:48;99564.72;;;1.84;97.57
33161;BME280;19522;45.656;11.302;2022-12-18T03:55:15;99490.56;;;1.46;95.80
33161;BME280;19522;45.656;11.302;2022-12-18T03:57:42;99572.34;;;1.91;95.72
33161;BME280;19522;45.656;11.302;2022-12-18T04:00:13;99585.41;;;1.82;96.76
33161;BME280;19522;45.656;11.302;2022-12-18T04:02:44;99580.13;;;1.68;97.55
33161;BME280;19522;45.656;11.302;2022-12-18T04:05:12;99481.38;;;1.10;98.07
33161;BME280;19522;45.656;11.302;2022-12-18T04:07:39;99585.38;;;1.69;98.46
33161;BME280;19522;45.656;11.302;2022-12-18T04:10:07;99575.28;;;1.60;99.06
33161;BME280;19522;45.656;11.302;2022-12-18T04:12:33;99591.06;;;1.65;99.07
33161;BME280;19522;45.656;11.302;2022-12-18T04:14:59;99560.97;;;1.34;99.14
33161;BME280;19522;45.656;11.302;2022-12-18T04:17:24;99609.22;;;1.60;98.88
33161;BME280;19522;45.656;11.302;2022-12-18T04:19:50;99573.19;;;1.38;98.58
33161;BME280;19522;45.656;11.302;2022-12-18T04:22:15;99495.72;;;1.09;97.73
33161;BME280;19522;45.656;11.302;2022-12-18T04:24:41;99600.50;;;1.83;94.61
33161;BME280;19522;45.656;11.302;2022-12-18T04:27:06;99544.94;;;1.47;94.79
33161;BME280;19522;45.656;11.302;2022-12-18T04:29:32;99613.22;;;1.67;95.54
33161;BME280;19522;45.656;11.302;2022-12-18T04:31:57;99620.22;;;1.42;96.91
33161;BME280;19522;45.656;11.302;2022-12-18T04:34:23;99620.44;;;1.39;97.99
33161;BME280;19522;45.656;11.302;2022-12-18T04:36:48;99625.22;;;1.34;98.70
33161;BME280;19522;45.656;11.302;2022-12-18T04:39:14;99622.22;;;1.38;98.49
33161;BME280;19522;45.656;11.302;2022-12-18T04:41:42;99630.41;;;1.50;97.41
33161;BME280;19522;45.656;11.302;2022-12-18T04:44:08;99595.28;;;1.42;95.45
33161;BME280;19522;45.656;11.302;2022-12-18T04:46:33;99640.56;;;1.72;95.07
33161;BME280;19522;45.656;11.302;2022-12-18T04:48:59;99639.78;;;1.70;94.74
33161;BME280;19522;45.656;11.302;2022-12-18T04:51:24;99646.84;;;1.58;95.86
33161;BME280;19522;45.656;11.302;2022-12-18T04:53:50;99655.00;;;1.42;97.00
33161;BME280;19522;45.656;11.302;2022-12-18T04:56:16;99621.47;;;1.09;97.93
33161;BME280;19522;45.656;11.302;2022-12-18T04:58:43;99664.50;;;1.33;98.02
33161;BME280;19522;45.656;11.302;2022-12-18T05:01:10;99673.22;;;1.37;98.10
33161;BME280;19522;45.656;11.302;2022-12-18T05:03:36;99658.28;;;1.33;97.24
33161;BME280;19522;45.656;11.302;2022-12-18T05:06:03;99657.16;;;1.37;95.66
33161;BME280;19522;45.656;11.302;2022-12-18T05:08:29;99677.25;;;1.30;96.97
33161;BME280;19522;45.656;11.302;2022-12-18T05:11:03;99551.53;;;0.59;97.55
33161;BME280;19522;45.656;11.302;2022-12-18T05:13:30;99675.53;;;1.29;97.80
33161;BME280;19522;45.656;11.302;2022-12-18T05:15:56;99670.16;;;1.29;98.45
33161;BME280;19522;45.656;11.302;2022-12-18T05:18:22;99683.09;;;1.07;99.58
33161;BME280;19522;45.656;11.302;2022-12-18T05:20:52;99667.03;;;1.07;99.84
33161;BME280;19522;45.656;11.302;2022-12-18T05:23:18;99693.41;;;1.14;99.57
33161;BME280;19522;45.656;11.302;2022-12-18T05:25:54;99658.34;;;1.04;98.74
33161;BME280;19522;45.656;11.302;2022-12-18T05:28:20;99668.19;;;0.89;99.25
33161;BME280;19522;45.656;11.302;2022-12-18T05:30:50;99691.22;;;0.91;100.00
33161;BME280;19522;45.656;11.302;2022-12-18T05:33:17;99656.75;;;0.72;100.00
33161;BME280;19522;45.656;11.302;2022-12-18T05:35:42;99696.94;;;1.14;100.00
33161;BME280;19522;45.656;11.302;2022-12-18T05:38:08;99708.13;;;1.21;98.91
33161;BME280;19522;45.656;11.302;2022-12-18T05:40:33;99665.06;;;0.97;98.29
33161;BME280;19522;45.656;11.302;2022-12-18T05:42:59;99715.84;;;1.11;98.67
33161;BME280;19522;45.656;11.302;2022-12-18T05:45:25;99683.50;;;0.72;100.00
33161;BME280;19522;45.656;11.302;2022-12-18T05:47:50;99626.13;;;0.49;100.00
33161;BME280;19522;45.656;11.302;2022-12-18T05:50:16;99717.22;;;1.18;98.40
33161;BME280;19522;45.656;11.302;2022-12-18T05:52:41;99668.13;;;0.90;97.96
33161;BME280;19522;45.656;11.302;2022-12-18T05:55:07;99697.34;;;0.93;98.08
33161;BME280;19522;45.656;11.302;2022-12-18T05:57:33;99707.78;;;0.84;99.31
33161;BME280;19522;45.656;11.302;2022-12-18T05:59:58;99715.13;;;0.80;100.00
33161;BME280;19522;45.656;11.302;2022-12-18T06:02:24;99717.69;;;0.82;100.00
33161;BME280;19522;45.656;11.302;2022-12-18T06:04:49;99726.00;;;0.91;100.00
33161;BME280;19522;45.656;11.302;2022-12-18T06:07:15;99708.53;;;0.86;100.00
33161;BME280;19522;45.656;11.302;2022-12-18T06:09:40;99741.88;;;0.95;100.00
33161;BME280;19522;45.656;11.302;2022-12-18T06:12:06;99748.19;;;1.08;98.14
33161;BME280;19522;45.656;11.302;2022-12-18T06:14:31;99745.56;;;1.06;97.75
33161;BME280;19522;45.656;11.302;2022-12-18T06:16:57;99731.81;;;0.98;97.42
33161;BME280;19522;45.656;11.302;2022-12-18T06:19:23;99752.00;;;1.18;95.94
33161;BME280;19522;45.656;11.302;2022-12-18T06:21:49;99762.41;;;1.23;96.09
33161;BME280;19522;45.656;11.302;2022-12-18T06:24:15;99737.38;;;0.95;96.10
33161;BME280;19522;45.656;11.302;2022-12-18T06:26:40;99765.88;;;0.96;97.13
33161;BME280;19522;45.656;11.302;2022-12-18T06:29:06;99777.03;;;0.88;98.52
33161;BME280;19522;45.656;11.302;2022-12-18T06:31:32;99740.31;;;0.61;99.03
33161;BME280;19522;45.656;11.302;2022-12-18T06:33:58;99761.53;;;0.93;98.18
33161;BME280;19522;45.656;11.302;2022-12-18T06:36:23;99743.97;;;0.89;97.45
33161;BME280;19522;45.656;11.302;2022-12-18T06:38:49;99775.00;;;1.06;97.19
33161;BME280;19522;45.656;11.302;2022-12-18T06:41:19;99780.38;;;1.06;97.29
33161;BME280;19522;45.656;11.302;2022-12-18T06:43:45;99799.06;;;0.77;98.46
33161;BME280;19522;45.656;11.302;2022-12-18T06:46:11;99791.47;;;0.55;99.69
33161;BME280;19522;45.656;11.302;2022-12-18T06:48:37;99793.06;;;0.88;99.55
33161;BME280;19522;45.656;11.302;2022-12-18T06:51:04;99791.25;;;0.89;98.70
33161;BME280;19522;45.656;11.302;2022-12-18T06:53:29;99794.59;;;0.92;97.82
33161;BME280;19522;45.656;11.302;2022-12-18T06:56:04;99749.84;;;0.51;98.68
33161;BME280;19522;45.656;11.302;2022-12-18T06:58:30;99785.97;;;0.73;99.37
33161;BME280;19522;45.656;11.302;2022-12-18T07:01:02;99789.41;;;0.75;99.89
33161;BME280;19522;45.656;11.302;2022-12-18T07:03:28;99723.19;;;0.35;98.18
33161;BME280;19522;45.656;11.302;2022-12-18T07:05:54;99790.47;;;0.72;99.09
33161;BME280;19522;45.656;11.302;2022-12-18T07:08:19;99797.53;;;0.73;99.18
33161;BME280;19522;45.656;11.302;2022-12-18T07:10:45;99800.38;;;0.56;100.00
33161;BME280;19522;45.656;11.302;2022-12-18T07:13:11;99804.53;;;0.45;100.00
33161;BME280;19522;45.656;11.302;2022-12-18T07:15:36;99809.84;;;0.61;100.00
33161;BME280;19522;45.656;11.302;2022-12-18T07:18:02;99786.72;;;0.60;100.00
33161;BME280;19522;45.656;11.302;2022-12-18T07:20:27;99811.69;;;0.75;100.00
33161;BME280;19522;45.656;11.302;2022-12-18T07:22:53;99815.97;;;0.78;100.00
33161;BME280;19522;45.656;11.302;2022-12-18T07:25:18;99813.31;;;0.92;99.64
33161;BME280;19522;45.656;11.302;2022-12-18T07:27:44;99776.22;;;0.57;99.71
33161;BME280;19522;45.656;11.302;2022-12-18T07:30:10;99822.28;;;0.77;100.00
33161;BME280;19522;45.656;11.302;2022-12-18T07:32:35;99819.44;;;0.80;100.00
33161;BME280;19522;45.656;11.302;2022-12-18T07:35:01;99719.09;;;0.13;100.00
33161;BME280;19522;45.656;11.302;2022-12-18T07:37:26;99722.03;;;0.09;100.00
33161;BME280;19522;45.656;11.302;2022-12-18T07:39:52;99835.28;;;0.83;100.00
33161;BME280;19522;45.656;11.302;2022-12-18T07:42:17;99837.38;;;0.92;100.00
33161;BME280;19522;45.656;11.302;2022-12-18T07:44:59;99736.31;;;0.24;100.00
33161;BME280;19522;45.656;11.302;2022-12-18T07:47:25;99840.06;;;0.92;100.00
33161;BME280;19522;45.656;11.302;2022-12-18T07:49:51;99844.97;;;1.00;100.00
33161;BME280;19522;45.656;11.302;2022-12-18T07:52:16;99782.72;;;0.68;100.00
33161;BME280;19522;45.656;11.302;2022-12-18T07:54:42;99702.28;;;0.11;100.00
33161;BME280;19522;45.656;11.302;2022-12-18T07:57:10;99822.94;;;0.81;100.00
33161;BME280;19522;45.656;11.302;2022-12-18T07:59:36;99858.66;;;1.10;100.00
33161;BME280;19522;45.656;11.302;2022-12-18T08:02:02;99806.25;;;0.91;99.35
33161;BME280;19522;45.656;11.302;2022-12-18T08:04:28;99864.59;;;1.30;98.41
33161;BME280;19522;45.656;11.302;2022-12-18T08:06:53;99825.28;;;1.16;97.13
33161;BME280;19522;45.656;11.302;2022-12-18T08:09:19;99832.19;;;1.20;96.78
33161;BME280;19522;45.656;11.302;2022-12-18T08:11:44;99853.91;;;1.30;97.42
33161;BME280;19522;45.656;11.302;2022-12-18T08:14:10;99865.72;;;1.69;96.54
33161;BME280;19522;45.656;11.302;2022-12-18T08:16:36;99869.34;;;1.82;95.08
33161;BME280;19522;45.656;11.302;2022-12-18T08:19:01;99858.84;;;1.79;94.83
33161;BME280;19522;45.656;11.302;2022-12-18T08:21:29;99857.41;;;1.74;95.82
33161;BME280;19522;45.656;11.302;2022-12-18T08:23:56;99855.00;;;1.69;96.13
33161;BME280;19522;45.656;11.302;2022-12-18T08:26:23;99883.81;;;1.80;97.69
33161;BME280;19522;45.656;11.302;2022-12-18T08:28:50;99882.28;;;1.76;98.64
33161;BME280;19522;45.656;11.302;2022-12-18T08:31:17;99808.78;;;1.38;99.15
33161;BME280;19522;45.656;11.302;2022-12-18T08:33:43;99891.38;;;1.88;98.95
33161;BME280;19522;45.656;11.302;2022-12-18T08:36:09;99901.03;;;1.90;99.20
33161;BME280;19522;45.656;11.302;2022-12-18T08:38:35;99884.84;;;1.92;99.73
33161;BME280;19522;45.656;11.302;2022-12-18T08:41:09;99901.75;;;2.07;99.70
33161;BME280;19522;45.656;11.302;2022-12-18T08:43:34;99904.69;;;2.16;99.74
33161;BME280;19522;45.656;11.302;2022-12-18T08:46:20;99900.84;;;2.35;99.03
33161;BME280;19522;45.656;11.302;2022-12-18T08:48:46;99894.88;;;2.44;97.88
33161;BME280;19522;45.656;11.302;2022-12-18T08:51:12;99877.25;;;2.40;97.43
33161;BME280;19522;45.656;11.302;2022-12-18T08:53:38;99867.59;;;2.38;97.29
33161;BME280;19522;45.656;11.302;2022-12-18T08:56:04;99890.72;;;2.80;96.07
33161;BME280;19522;45.656;11.302;2022-12-18T08:58:30;99911.59;;;3.28;93.39
33161;BME280;19522;45.656;11.302;2022-12-18T09:01:08;99886.03;;;3.23;91.40
33161;BME280;19522;45.656;11.302;2022-12-18T09:03:34;99909.91;;;3.40;89.92
33161;BME280;19522;45.656;11.302;2022-12-18T09:06:00;99917.75;;;3.43;89.37
33161;BME280;19522;45.656;11.302;2022-12-18T09:08:26;99911.72;;;3.53;88.35
33161;BME280;19522;45.656;11.302;2022-12-18T09:10:52;99920.66;;;3.66;89.60
33161;BME280;19522;45.656;11.302;2022-12-18T09:13:18;99909.56;;;3.84;90.98
33161;BME280;19522;45.656;11.302;2022-12-18T09:15:46;99901.88;;;4.16;90.90
33161;BME280;19522;45.656;11.302;2022-12-18T09:18:13;99881.94;;;4.56;89.36
33161;BME280;19522;45.656;11.302;2022-12-18T09:20:39;99912.94;;;4.97;85.91
33161;BME280;19522;45.656;11.302;2022-12-18T09:23:05;99928.53;;;5.52;83.50
33161;BME280;19522;45.656;11.302;2022-12-18T09:25:31;99909.44;;;5.67;81.44
33161;BME280;19522;45.656;11.302;2022-12-18T09:28:13;99921.22;;;5.88;79.13
33161;BME280;19522;45.656;11.302;2022-12-18T09:30:41;99863.50;;;5.57;77.32
33161;BME280;19522;45.656;11.302;2022-12-18T09:33:07;99857.75;;;5.61;76.39
33161;BME280;19522;45.656;11.302;2022-12-18T09:35:39;99917.06;;;6.07;73.10
33161;BME280;19522;45.656;11.302;2022-12-18T09:38:04;99898.03;;;5.97;72.86
33161;BME280;19522;45.656;11.302;2022-12-18T09:40:35;99808.72;;;5.45;73.27
33161;BME280;19522;45.656;11.302;2022-12-18T09:43:04;99834.22;;;5.52;72.94
33161;BME280;19522;45.656;11.302;2022-12-18T09:45:39;99917.91;;;5.85;74.71
33161;BME280;19522;45.656;11.302;2022-12-18T09:48:43;99868.38;;;5.97;74.32
33161;BME280;19522;45.656;11.302;2022-12-18T09:51:13;99792.56;;;5.68;74.60
33161;BME280;19522;45.656;11.302;2022-12-18T09:53:41;99904.44;;;6.74;72.95
33161;BME280;19522;45.656;11.302;2022-12-18T09:56:14;99910.00;;;6.94;70.53
33161;BME280;19522;45.656;11.302;2022-12-18T09:58:47;99903.34;;;6.98;69.62
33161;BME280;19522;45.656;11.302;2022-12-18T10:01:16;99901.09;;;7.45;68.79
33161;BME280;19522;45.656;11.302;2022-12-18T10:03:43;99908.34;;;7.66;68.69
33161;BME280;19522;45.656;11.302;2022-12-18T10:06:18;99898.56;;;8.47;67.72
33161;BME280;19522;45.656;11.302;2022-12-18T10:08:54;99902.22;;;8.96;64.47
33161;BME280;19522;45.656;11.302;2022-12-18T10:14:53;99872.72;;;10.54;56.62
33161;BME280;19522;45.656;11.302;2022-12-18T10:25:49;99848.31;;;10.72;53.29
33161;BME280;19522;45.656;11.302;2022-12-18T10:28:17;99838.50;;;10.43;52.39
33161;BME280;19522;45.656;11.302;2022-12-18T10:30:44;99859.72;;;10.02;55.19
33161;BME280;19522;45.656;11.302;2022-12-18T10:33:30;99868.41;;;10.05;56.23
33161;BME280;19522;45.656;11.302;2022-12-18T10:35:56;99873.31;;;9.54;54.06
33161;BME280;19522;45.656;11.302;2022-12-18T10:38:25;99882.75;;;8.52;55.05
33161;BME280;19522;45.656;11.302;2022-12-18T10:41:25;99880.84;;;8.33;57.02
33161;BME280;19522;45.656;11.302;2022-12-18T10:44:15;99879.09;;;9.12;55.79
33161;BME280;19522;45.656;11.302;2022-12-18T10:46:41;99879.94;;;9.79;54.15
33161;BME280;19522;45.656;11.302;2022-12-18T10:49:22;99817.53;;;9.42;55.16
33161;BME280;19522;45.656;11.302;2022-12-18T10:51:48;99848.84;;;9.74;53.08
33161;BME280;19522;45.656;11.302;2022-12-18T10:54:18;99869.84;;;10.00;51.17
33161;BME280;19522;45.656;11.302;2022-12-18T10:56:44;99845.63;;;9.88;48.92
33161;BME280;19522;45.656;11.302;2022-12-18T10:59:13;99873.16;;;9.65;49.50
33161;BME280;19522;45.656;11.302;2022-12-18T11:01:57;99871.69;;;9.71;49.45
33161;BME280;19522;45.656;11.302;2022-12-18T11:04:25;99854.66;;;9.79;51.18
33161;BME280;19522;45.656;11.302;2022-12-18T11:09:36;99850.00;;;11.62;47.37
33161;BME280;19522;45.656;11.302;2022-12-18T11:12:22;99862.56;;;10.92;45.73
33161;BME280;19522;45.656;11.302;2022-12-18T11:14:51;99859.81;;;11.28;45.62
33161;BME280;19522;45.656;11.302;2022-12-18T11:17:37;99854.88;;;12.11;45.69
33161;BME280;19522;45.656;11.302;2022-12-18T11:20:53;99851.97;;;12.12;44.67
33161;BME280;19522;45.656;11.302;2022-12-18T11:23:01;99841.31;;;11.93;45.01
33161;BME280;19522;45.656;11.302;2022-12-18T11:25:28;99844.84;;;11.06;44.99
33161;BME280;19522;45.656;11.302;2022-12-18T11:27:56;99818.56;;;9.78;47.17
33161;BME280;19522;45.656;11.302;2022-12-18T11:33:11;99825.63;;;11.52;47.55
33161;BME280;19522;45.656;11.302;2022-12-18T11:35:47;99840.72;;;11.46;46.12
33161;BME280;19522;45.656;11.302;2022-12-18T11:40:54;99846.09;;;10.94;47.19
33161;BME280;19522;45.656;11.302;2022-12-18T11:43:27;99840.94;;;10.36;48.29
33161;BME280;19522;45.656;11.302;2022-12-18T11:46:04;99842.16;;;10.52;49.26
33161;BME280;19522;45.656;11.302;2022-12-18T11:48:37;99827.38;;;11.35;46.40
33161;BME280;19522;45.656;11.302;2022-12-18T11:51:05;99827.47;;;11.51;47.03
33161;BME280;19522;45.656;11.302;2022-12-18T11:53:34;99817.06;;;10.76;46.99
33161;BME280;19522;45.656;11.302;2022-12-18T12:21:24;99819.00;;;11.54;46.55
33161;BME280;19522;45.656;11.302;2022-12-18T12:35:32;99821.63;;;12.58;44.64
33161;BME280;19522;45.656;11.302;2022-12-18T12:41:04;99783.38;;;12.00;44.58
33161;BME280;19522;45.656;11.302;2022-12-18T12:43:57;99736.41;;;12.15;44.82
33161;BME280;19522;45.656;11.302;2022-12-18T12:46:34;99801.78;;;12.23;43.98
33161;BME280;19522;45.656;11.302;2022-12-18T12:49:13;99814.88;;;11.77;44.77
33161;BME280;19522;45.656;11.302;2022-12-18T12:51:45;99661.09;;;10.60;45.41
33161;BME280;19522;45.656;11.302;2022-12-18T12:54:19;99691.84;;;11.57;44.89
33161;BME280;19522;45.656;11.302;2022-12-18T13:07:52;99799.75;;;11.82;45.25
33161;BME280;19522;45.656;11.302;2022-12-18T13:13:11;99818.81;;;11.82;44.95
33161;BME280;19522;45.656;11.302;2022-12-18T13:16:04;99822.97;;;10.89;45.89
33161;BME280;19522;45.656;11.302;2022-12-18T13:18:35;99815.63;;;10.18;47.47
33161;BME280;19522;45.656;11.302;2022-12-18T13:21:15;99738.63;;;9.73;48.02
33161;BME280;19522;45.656;11.302;2022-12-18T13:23:48;99814.72;;;9.24;49.74
33161;BME280;19522;45.656;11.302;2022-12-18T13:36:40;99655.81;;;7.28;54.19
33161;BME280;19522;45.656;11.302;2022-12-18T13:39:22;99817.91;;;8.40;55.24
33161;BME280;19522;45.656;11.302;2022-12-18T13:44:55;99737.31;;;7.64;55.36
33161;BME280;19522;45.656;11.302;2022-12-18T13:47:32;99818.75;;;8.31;55.21
33161;BME280;19522;45.656;11.302;2022-12-18T13:50:23;99814.91;;;8.34;55.38
33161;BME280;19522;45.656;11.302;2022-12-18T13:52:53;99810.19;;;8.46;54.95
33161;BME280;19522;45.656;11.302;2022-12-18T13:55:20;99768.59;;;8.27;54.64
33161;BME280;19522;45.656;11.302;2022-12-18T13:57:47;99721.81;;;7.76;54.69
33161;BME280;19522;45.656;11.302;2022-12-18T14:02:45;99791.78;;;8.00;56.13
33161;BME280;19522;45.656;11.302;2022-12-18T14:05:27;99814.03;;;8.23;56.60
33161;BME280;19522;45.656;11.302;2022-12-18T14:07:53;99783.94;;;7.97;56.20
33161;BME280;19522;45.656;11.302;2022-12-18T14:10:21;99800.91;;;7.68;57.43
33161;BME280;19522;45.656;11.302;2022-12-18T14:12:49;99821.63;;;7.79;57.79
33161;BME280;19522;45.656;11.302;2022-12-18T14:15:31;99812.38;;;7.82;58.85
33161;BME280;19522;45.656;11.302;2022-12-18T14:20:32;99819.19;;;7.86;59.97
33161;BME280;19522;45.656;11.302;2022-12-18T14:22:58;99822.94;;;8.04;59.52
33161;BME280;19522;45.656;11.302;2022-12-18T14:25:30;99826.94;;;8.10;59.94
33161;BME280;19522;45.656;11.302;2022-12-18T14:28:04;99819.72;;;8.20;59.98
33161;BME280;19522;45.656;11.302;2022-12-18T14:30:44;99833.41;;;8.29;60.01
33161;BME280;19522;45.656;11.302;2022-12-18T14:33:12;99832.28;;;8.31;60.82
33161;BME280;19522;45.656;11.302;2022-12-18T14:35:51;99838.22;;;8.15;61.63
33161;BME280;19522;45.656;11.302;2022-12-18T14:38:33;99845.22;;;8.18;61.95
33161;BME280;19522;45.656;11.302;2022-12-18T14:41:02;99841.34;;;8.10;62.66
33161;BME280;19522;45.656;11.302;2022-12-18T14:43:35;99838.34;;;8.14;62.64
33161;BME280;19522;45.656;11.302;2022-12-18T14:46:02;99840.06;;;8.05;62.60
33161;BME280;19522;45.656;11.302;2022-12-18T14:48:39;99843.59;;;8.05;62.86
33161;BME280;19522;45.656;11.302;2022-12-18T14:51:18;99849.66;;;7.88;63.38
33161;BME280;19522;45.656;11.302;2022-12-18T14:53:47;99844.84;;;7.91;63.05
33161;BME280;19522;45.656;11.302;2022-12-18T14:56:21;99846.97;;;7.88;63.47
33161;BME280;19522;45.656;11.302;2022-12-18T14:58:54;99834.53;;;7.75;63.82